Terminal Aerodrome Forecast
Issued by NWS Twin Cities, MN

Home | Current Version | Previous Version | Text Only | Print | Product List | Glossary On
Versions: 1 2 3 4 5 6 7 8 9 10 11 12 13 14 15 16 17 18 19 20 21
064
FTUS43 KMPX 301354 AAA
TAFSTC
TAF AMD
KSTC 301354Z 3014/0112 08004KT 3/4SM BR OVC002
     FM301500 08004KT 4SM BR BKN005
     FM301600 09006KT P6SM FEW025
     FM302200 08005KT P6SM BKN040
     FM010800 07003KT 4SM BR SCT010 OVC020=

USA.gov is the U.S. government's official web portal to all federal, state and local government web resources and services.